createdAt,value
2018-06-03T03:17:08.084Z,16.50
2018-06-03T03:39:54.748Z,16.10
2018-06-03T03:42:42.693Z,16.10
2018-06-03T03:45:10.434Z,16.10
2018-06-03T03:47:38.820Z,16.00
2018-06-03T03:50:06.429Z,16.00
2018-06-03T03:52:34.161Z,16.10
2018-06-03T03:55:02.474Z,16.10
2018-06-03T03:57:30.060Z,16.00
2018-06-03T03:59:57.818Z,16.00
2018-06-03T04:02:26.235Z,16.00
2018-06-03T04:04:54.553Z,16.00
2018-06-03T04:07:22.172Z,16.00
2018-06-03T04:09:49.746Z,16.00
2018-06-03T04:12:17.441Z,16.00
2018-06-03T04:14:45.095Z,15.90
2018-06-03T04:17:12.664Z,15.90
2018-06-03T04:19:41.282Z,15.90
2018-06-03T04:22:09.273Z,15.90
2018-06-03T04:24:36.928Z,15.90
2018-06-03T04:27:05.378Z,15.90
2018-06-03T04:29:32.980Z,15.90
2018-06-03T04:32:01.337Z,15.90
2018-06-03T04:34:30.413Z,15.80
2018-06-03T04:36:58.031Z,15.90
2018-06-03T04:56:31.000Z,16.00
2018-06-03T04:58:58.664Z,16.00
2018-06-03T05:18:31.161Z,16.40
2018-06-03T05:21:00.365Z,16.50
2018-06-03T05:23:28.541Z,16.50
2018-06-03T05:43:03.330Z,16.90
2018-06-03T05:45:31.430Z,16.90
2018-06-03T06:05:18.656Z,17.10
2018-06-03T06:07:50.575Z,17.10
2018-06-03T06:10:20.322Z,17.30
2018-06-03T06:12:48.484Z,17.30
2018-06-03T06:15:17.263Z,17.40
2018-06-03T06:17:48.693Z,17.40
2018-06-03T06:20:18.706Z,17.50
2018-06-03T06:39:53.075Z,18.10
2018-06-03T06:42:26.607Z,18.20
2018-06-03T06:44:55.181Z,18.30
2018-06-03T07:04:35.423Z,19.30
2018-06-03T07:07:12.992Z,19.60
2018-06-03T07:09:40.529Z,19.60
2018-06-03T07:12:18.762Z,19.70
2018-06-03T07:14:46.599Z,19.90
2018-06-03T07:51:37.019Z,20.40
2018-06-03T08:11:32.060Z,20.00
2018-06-03T08:14:08.839Z,20.00
2018-06-03T08:45:30.666Z,21.40
2018-06-03T09:43:14.786Z,23.20
2018-06-03T10:31:03.800Z,25.00
2018-06-03T10:33:31.357Z,24.80
2018-06-03T10:35:58.918Z,24.60
2018-06-03T10:38:27.402Z,24.40
2018-06-03T10:40:57.016Z,24.40
2018-06-03T10:43:25.837Z,24.40
2018-06-03T10:45:53.542Z,24.30
2018-06-03T10:48:22.069Z,24.30
2018-06-03T10:50:50.980Z,24.30
2018-06-03T10:53:18.606Z,24.20
2018-06-03T10:58:49.868Z,24.20
2018-06-03T11:01:17.592Z,24.20
2018-06-03T11:03:48.960Z,24.20
2018-06-03T11:06:17.521Z,24.20
2018-06-03T11:08:48.835Z,24.20
2018-06-03T11:11:18.067Z,24.30
2018-06-03T11:13:45.706Z,24.20
2018-06-03T11:16:13.607Z,24.30
2018-06-03T11:18:41.433Z,24.30
2018-06-03T11:21:09.135Z,24.40
2018-06-03T11:37:58.684Z,24.60
2018-06-03T11:40:26.249Z,24.70
2018-06-03T11:42:53.795Z,24.90
2018-06-03T11:45:37.239Z,25.00
2018-06-03T11:48:04.882Z,25.00
2018-06-03T11:50:32.560Z,25.10
2018-06-03T11:53:00.182Z,25.20
2018-06-03T11:55:27.897Z,25.20
2018-06-03T11:57:55.446Z,25.30
2018-06-03T12:00:22.996Z,25.40
2018-06-03T12:02:50.577Z,25.40
2018-06-03T12:05:18.090Z,25.40
2018-06-03T12:07:45.662Z,25.40
2018-06-03T12:10:14.052Z,25.40
2018-06-03T12:12:42.488Z,25.40
2018-06-03T12:15:10.012Z,25.40
2018-06-03T12:17:37.564Z,25.40
2018-06-03T12:20:05.088Z,25.40
2018-06-03T12:22:32.940Z,25.40
2018-06-03T12:25:02.304Z,25.50
2018-06-03T12:27:30.717Z,25.50
2018-06-03T12:29:58.547Z,25.70
2018-06-03T12:32:26.086Z,25.80
2018-06-03T12:34:54.376Z,26.00
2018-06-03T12:37:22.806Z,25.90
2018-06-03T12:40:07.044Z,26.00
2018-06-03T12:42:35.821Z,25.90
2018-06-03T12:45:03.353Z,25.80
2018-06-03T12:47:32.991Z,25.80
2018-06-03T12:50:00.633Z,25.80
2018-06-03T12:52:28.270Z,25.80
2018-06-03T12:55:07.467Z,25.90
2018-06-03T12:57:35.201Z,25.80
2018-06-03T13:00:02.763Z,25.80
2018-06-03T13:02:30.321Z,26.00
2018-06-03T13:04:58.876Z,26.10
2018-06-03T13:07:27.183Z,26.10
2018-06-03T13:09:54.789Z,26.10
2018-06-03T13:12:22.523Z,26.10
2018-06-03T13:14:50.037Z,26.00
2018-06-03T13:17:18.386Z,25.80
2018-06-03T13:25:33.671Z,25.70
2018-06-03T13:28:01.165Z,25.80
2018-06-03T13:30:28.744Z,25.80
2018-06-03T13:33:19.777Z,25.80
2018-06-03T13:35:48.005Z,25.80
2018-06-03T13:38:17.605Z,25.90
2018-06-03T13:44:32.149Z,25.90
2018-06-03T13:46:59.936Z,25.90
2018-06-03T13:49:27.443Z,25.90
2018-06-03T13:51:55.900Z,26.20
2018-06-03T13:54:26.941Z,26.70
2018-06-03T13:57:02.874Z,27.00
2018-06-03T13:59:32.163Z,27.00
2018-06-03T14:05:03.393Z,26.90
2018-06-03T14:07:34.542Z,26.90
2018-06-03T14:10:11.718Z,26.80
